»·PEaware :: N185JB KVCV-KSEE

N185JB :: KVCV-KSEE

FLIGHT INFORMATION

Flight Status: Arrived
Operator: Privately registered:
United States
More flights under this callsign
Pilot: Jeremy B. (30440)
Aircraft: CESSNA 172 SKYHAWK
(C172)
More flights by this aircraft type
Origin: KVCV Socal Logistics
United States
Destination: KSEE Gillespie
United States
More flights between these airports :: More routes between these airports
Route: +HDF
File this flight plan on PilotEdge
Remarks:
Altitude:
(Current/Filed)
5,500ft
Speed:
(Current/Filed)
110kts
Departed: 13-Oct-20 04:44 PM
Arrived: 13-Oct-20 05:44 PM
Distance/Time
Traveled:
108nm/0:59
Distance/Time
To Go:
Arrived

Flight Plot

Page will automatically refresh every two minutes.

Flight plan parsing failed; only flown route is shown


Map Options




Map Legend


Flown Route
Filed Route
Departure Airport
Arrival Airport
Navaid (VOR, NDB)
Fix

Horizontal Profiles

Position Reports

Time Latitude Longitude Heading Altitude Ground
Speed
13-Oct-20 16:26 34.589517 -117.375470 219 2867ft 0kts
13-Oct-20 16:27 34.589517 -117.375470 219 2867ft 0kts
13-Oct-20 16:28 34.589517 -117.375470 219 2867ft 0kts
13-Oct-20 16:29 34.589517 -117.375470 219 2867ft 0kts
13-Oct-20 16:30 34.589517 -117.375470 219 2867ft 0kts
13-Oct-20 16:31 34.589517 -117.375470 219 2867ft 0kts
13-Oct-20 16:32 34.589517 -117.375470 219 2867ft 0kts
13-Oct-20 16:33 34.589517 -117.375470 219 2867ft 0kts
13-Oct-20 16:34 34.589517 -117.375470 219 2867ft 0kts
13-Oct-20 16:35 34.589517 -117.375470 219 2867ft 0kts
13-Oct-20 16:36 34.589517 -117.375470 219 2867ft 0kts
13-Oct-20 16:37 34.589515 -117.375471 222 2867ft 0kts
13-Oct-20 16:38 34.592254 -117.373532 43 2862ft 19kts
13-Oct-20 16:39 34.594285 -117.367752 4 2856ft 18kts
13-Oct-20 16:40 34.599007 -117.366665 8 2849ft 15kts
13-Oct-20 16:41 34.599092 -117.366650 7 2849ft 0kts
13-Oct-20 16:42 34.599092 -117.366650 7 2849ft 0kts
13-Oct-20 16:43 34.596050 -117.371921 224 2859ft 74kts
13-Oct-20 16:44 34.580324 -117.391074 196 3498ft 80kts
13-Oct-20 16:45 34.562345 -117.374571 143 4096ft 86kts
13-Oct-20 16:46 34.539313 -117.367101 166 4686ft 87kts
13-Oct-20 16:47 34.515634 -117.361759 173 5241ft 88kts
13-Oct-20 16:48 34.489133 -117.355840 172 5516ft 109kts
13-Oct-20 16:49 34.457820 -117.350238 168 5562ft 122kts
13-Oct-20 16:50 34.426307 -117.344391 174 5887ft 106kts
13-Oct-20 16:51 34.397960 -117.339616 172 6324ft 100kts
13-Oct-20 16:52 34.371478 -117.333825 170 6808ft 95kts
13-Oct-20 16:53 34.345618 -117.325328 163 7224ft 96kts
13-Oct-20 16:54 34.318143 -117.317437 173 7419ft 112kts
13-Oct-20 16:55 34.286748 -117.311126 173 7421ft 113kts
13-Oct-20 16:56 34.255936 -117.304933 170 7387ft 110kts
13-Oct-20 16:57 34.226331 -117.299690 173 7504ft 105kts
13-Oct-20 16:58 34.196336 -117.292901 168 7621ft 116kts
13-Oct-20 16:59 34.165001 -117.283183 169 7674ft 113kts
13-Oct-20 17:01 34.134047 -117.276123 169 7626ft 112kts
13-Oct-20 17:02 34.104132 -117.268220 124 7596ft 112kts
13-Oct-20 17:03 34.075788 -117.256498 170 7594ft 110kts
13-Oct-20 17:04 34.045450 -117.249370 170 7527ft 116kts
13-Oct-20 17:05 34.011491 -117.241285 170 7023ft 127kts
13-Oct-20 17:06 33.976770 -117.233000 169 6520ft 127kts
13-Oct-20 17:07 33.941810 -117.224672 169 6021ft 128kts
13-Oct-20 17:08 33.907495 -117.216507 169 5694ft 119kts
13-Oct-20 17:09 33.875926 -117.208990 169 5684ft 114kts
13-Oct-20 17:10 33.844907 -117.201612 169 5681ft 114kts
13-Oct-20 17:11 33.813722 -117.194201 169 5679ft 114kts
13-Oct-20 17:12 33.782604 -117.186812 169 5677ft 114kts
13-Oct-20 17:13 33.751476 -117.179083 172 5676ft 114kts
13-Oct-20 17:14 33.720965 -117.167864 162 5672ft 115kts
13-Oct-20 17:15 33.690657 -117.155753 162 5671ft 114kts
13-Oct-20 17:15 33.664948 -117.146963 172 5673ft 115kts
13-Oct-20 17:17 33.627824 -117.140266 172 5667ft 115kts
13-Oct-20 17:17 33.601347 -117.135470 172 5667ft 115kts
13-Oct-20 17:19 33.564227 -117.128793 172 5664ft 115kts
13-Oct-20 17:19 33.540915 -117.118022 93 5667ft 114kts
13-Oct-20 17:20 33.516980 -117.101489 172 5662ft 116kts
13-Oct-20 17:21 33.484829 -117.095723 172 5664ft 117kts
13-Oct-20 17:22 33.452430 -117.089851 172 5662ft 118kts
13-Oct-20 17:23 33.419870 -117.083926 172 5660ft 119kts
13-Oct-20 17:24 33.387189 -117.077927 172 5659ft 120kts
13-Oct-20 17:25 33.353823 -117.071811 172 5457ft 129kts
13-Oct-20 17:26 33.317226 -117.065433 172 4958ft 133kts
13-Oct-20 17:27 33.280609 -117.059311 172 4454ft 132kts
13-Oct-20 17:28 33.244310 -117.053386 172 3950ft 131kts
13-Oct-20 17:29 33.208736 -117.046496 172 3568ft 124kts
13-Oct-20 17:30 33.175793 -117.041335 172 3552ft 117kts
13-Oct-20 17:31 33.143617 -117.036259 172 3549ft 116kts
13-Oct-20 17:32 33.111669 -117.029354 162 3547ft 117kts
13-Oct-20 17:33 33.080775 -117.017467 162 3547ft 116kts
13-Oct-20 17:34 33.049767 -117.005517 162 3547ft 117kts
13-Oct-20 17:35 33.018786 -116.993382 154 3545ft 116kts
13-Oct-20 17:36 32.990050 -116.975382 152 3545ft 116kts
13-Oct-20 17:37 32.961388 -116.957323 151 3545ft 117kts
13-Oct-20 17:38 32.928609 -116.955675 192 3244ft 125kts
13-Oct-20 17:39 32.893022 -116.964124 198 2558ft 138kts
13-Oct-20 17:40 32.857979 -116.973048 181 1431ft 126kts
13-Oct-20 17:41 32.833095 -116.960130 114 1123ft 103kts
13-Oct-20 17:42 32.827475 -116.970316 282 373ft 77kts
13-Oct-20 17:43 32.829263 -116.980070 282 368ft 29kts
13-Oct-20 17:44 32.827382 -116.979415 102 370ft 19kts
13-Oct-20 17:45 32.825937 -116.973249 248 371ft 13kts

Navigation Log

Ident Type
Flight plan parsing failed, navigation log unavailable